sensor_id;sensor_type;location;lat;lon;timestamp;temperature;humidity
11748;DHT22;5931;48.832;9.072;2023-05-21T00:01:39;14.50;99.90
11748;DHT22;5931;48.832;9.072;2023-05-21T00:04:05;14.50;99.90
11748;DHT22;5931;48.832;9.072;2023-05-21T00:06:34;14.50;99.90
11748;DHT22;5931;48.832;9.072;2023-05-21T00:09:04;14.50;99.90
11748;DHT22;5931;48.832;9.072;2023-05-21T00:11:31;14.50;99.90
11748;DHT22;5931;48.832;9.072;2023-05-21T00:13:57;14.40;99.90
11748;DHT22;5931;48.832;9.072;2023-05-21T00:16:23;14.40;99.90
11748;DHT22;5931;48.832;9.072;2023-05-21T00:18:49;14.20;99.90
11748;DHT22;5931;48.832;9.072;2023-05-21T00:21:16;14.10;99.90
11748;DHT22;5931;48.832;9.072;2023-05-21T00:23:42;14.00;99.90
11748;DHT22;5931;48.832;9.072;2023-05-21T00:26:08;13.90;99.90
11748;DHT22;5931;48.832;9.072;2023-05-21T00:28:34;13.90;99.90
11748;DHT22;5931;48.832;9.072;2023-05-21T00:31:00;13.80;99.90
11748;DHT22;5931;48.832;9.072;2023-05-21T00:33:26;13.80;99.90
11748;DHT22;5931;48.832;9.072;2023-05-21T00:35:54;13.70;99.90
11748;DHT22;5931;48.832;9.072;2023-05-21T00:38:20;13.70;99.90
11748;DHT22;5931;48.832;9.072;2023-05-21T00:40:46;13.60;99.90
11748;DHT22;5931;48.832;9.072;2023-05-21T00:43:12;13.60;99.90
11748;DHT22;5931;48.832;9.072;2023-05-21T00:45:40;13.60;99.90
11748;DHT22;5931;48.832;9.072;2023-05-21T00:48:09;13.50;99.90
11748;DHT22;5931;48.832;9.072;2023-05-21T00:50:35;13.50;99.90
11748;DHT22;5931;48.832;9.072;2023-05-21T00:53:05;13.50;99.90
11748;DHT22;5931;48.832;9.072;2023-05-21T00:55:38;13.40;99.90
11748;DHT22;5931;48.832;9.072;2023-05-21T00:58:05;13.40;99.90
11748;DHT22;5931;48.832;9.072;2023-05-21T01:00:35;13.60;99.90
11748;DHT22;5931;48.832;9.072;2023-05-21T01:03:03;13.60;99.90
11748;DHT22;5931;48.832;9.072;2023-05-21T01:05:29;13.50;99.90
11748;DHT22;5931;48.832;9.072;2023-05-21T01:07:56;13.40;99.90
11748;DHT22;5931;48.832;9.072;2023-05-21T01:10:24;13.50;99.90
11748;DHT22;5931;48.832;9.072;2023-05-21T01:12:51;13.40;99.90
11748;DHT22;5931;48.832;9.072;2023-05-21T01:15:17;13.40;99.90
11748;DHT22;5931;48.832;9.072;2023-05-21T01:17:43;13.40;99.90
11748;DHT22;5931;48.832;9.072;2023-05-21T01:20:15;13.40;99.90
11748;DHT22;5931;48.832;9.072;2023-05-21T01:22:52;13.40;99.90
11748;DHT22;5931;48.832;9.072;2023-05-21T01:25:18;13.40;99.90
11748;DHT22;5931;48.832;9.072;2023-05-21T01:27:43;13.40;99.90
11748;DHT22;5931;48.832;9.072;2023-05-21T01:30:10;13.30;99.90
11748;DHT22;5931;48.832;9.072;2023-05-21T01:32:49;13.30;99.90
11748;DHT22;5931;48.832;9.072;2023-05-21T01:35:21;13.20;99.90
11748;DHT22;5931;48.832;9.072;2023-05-21T01:38:11;13.20;99.90
11748;DHT22;5931;48.832;9.072;2023-05-21T01:43:06;13.10;99.90
11748;DHT22;5931;48.832;9.072;2023-05-21T01:45:35;13.00;99.90
11748;DHT22;5931;48.832;9.072;2023-05-21T01:48:03;13.00;99.90
11748;DHT22;5931;48.832;9.072;2023-05-21T01:50:31;13.00;99.90
11748;DHT22;5931;48.832;9.072;2023-05-21T01:52:56;12.90;99.90
11748;DHT22;5931;48.832;9.072;2023-05-21T01:55:23;12.80;99.90
11748;DHT22;5931;48.832;9.072;2023-05-21T01:57:53;12.80;99.90
11748;DHT22;5931;48.832;9.072;2023-05-21T02:00:23;12.80;99.90
11748;DHT22;5931;48.832;9.072;2023-05-21T02:02:50;12.70;99.90
11748;DHT22;5931;48.832;9.072;2023-05-21T02:05:16;12.70;99.90
11748;DHT22;5931;48.832;9.072;2023-05-21T02:07:44;12.60;99.90
11748;DHT22;5931;48.832;9.072;2023-05-21T02:10:10;12.60;99.90
11748;DHT22;5931;48.832;9.072;2023-05-21T02:12:36;12.60;99.90
11748;DHT22;5931;48.832;9.072;2023-05-21T02:15:02;12.60;99.90
11748;DHT22;5931;48.832;9.072;2023-05-21T02:17:28;12.50;99.90
11748;DHT22;5931;48.832;9.072;2023-05-21T02:20:01;12.50;99.90
11748;DHT22;5931;48.832;9.072;2023-05-21T02:22:43;12.50;99.90
11748;DHT22;5931;48.832;9.072;2023-05-21T02:25:11;12.40;99.90
11748;DHT22;5931;48.832;9.072;2023-05-21T02:27:38;12.40;99.90
11748;DHT22;5931;48.832;9.072;2023-05-21T02:30:10;12.40;99.90
11748;DHT22;5931;48.832;9.072;2023-05-21T02:32:36;12.30;99.90
11748;DHT22;5931;48.832;9.072;2023-05-21T02:35:03;12.30;99.90
11748;DHT22;5931;48.832;9.072;2023-05-21T02:37:30;12.20;99.90
11748;DHT22;5931;48.832;9.072;2023-05-21T02:40:00;12.20;99.90
11748;DHT22;5931;48.832;9.072;2023-05-21T02:42:26;12.20;99.90
11748;DHT22;5931;48.832;9.072;2023-05-21T02:44:52;12.20;99.90
11748;DHT22;5931;48.832;9.072;2023-05-21T02:47:18;12.20;99.90
11748;DHT22;5931;48.832;9.072;2023-05-21T02:49:45;12.10;99.90
11748;DHT22;5931;48.832;9.072;2023-05-21T02:52:11;12.10;99.90
11748;DHT22;5931;48.832;9.072;2023-05-21T02:54:36;12.10;99.90
11748;DHT22;5931;48.832;9.072;2023-05-21T02:57:02;12.10;99.90
11748;DHT22;5931;48.832;9.072;2023-05-21T02:59:28;12.20;99.90
11748;DHT22;5931;48.832;9.072;2023-05-21T03:01:54;12.20;99.90
11748;DHT22;5931;48.832;9.072;2023-05-21T03:04:19;12.10;99.90
11748;DHT22;5931;48.832;9.072;2023-05-21T03:06:51;12.20;99.90
11748;DHT22;5931;48.832;9.072;2023-05-21T03:09:19;12.20;99.90
11748;DHT22;5931;48.832;9.072;2023-05-21T03:11:46;12.10;99.90
11748;DHT22;5931;48.832;9.072;2023-05-21T03:14:12;12.10;99.90
11748;DHT22;5931;48.832;9.072;2023-05-21T03:16:38;12.10;99.90
11748;DHT22;5931;48.832;9.072;2023-05-21T03:19:06;12.00;99.90
11748;DHT22;5931;48.832;9.072;2023-05-21T03:21:32;12.00;99.90
11748;DHT22;5931;48.832;9.072;2023-05-21T03:23:58;11.90;99.90
11748;DHT22;5931;48.832;9.072;2023-05-21T03:26:28;11.90;99.90
11748;DHT22;5931;48.832;9.072;2023-05-21T03:28:55;11.80;99.90
11748;DHT22;5931;48.832;9.072;2023-05-21T03:31:24;11.90;99.90
11748;DHT22;5931;48.832;9.072;2023-05-21T03:34:06;11.90;99.90
11748;DHT22;5931;48.832;9.072;2023-05-21T03:36:33;11.90;99.90
11748;DHT22;5931;48.832;9.072;2023-05-21T03:38:59;11.90;99.90
11748;DHT22;5931;48.832;9.072;2023-05-21T03:41:25;11.80;99.90
11748;DHT22;5931;48.832;9.072;2023-05-21T03:44:00;11.80;99.90
11748;DHT22;5931;48.832;9.072;2023-05-21T03:46:31;11.80;99.90
11748;DHT22;5931;48.832;9.072;2023-05-21T03:49:02;11.80;99.90
11748;DHT22;5931;48.832;9.072;2023-05-21T03:51:29;11.80;99.90
11748;DHT22;5931;48.832;9.072;2023-05-21T03:53:59;11.80;99.90
11748;DHT22;5931;48.832;9.072;2023-05-21T03:56:25;11.80;99.90
11748;DHT22;5931;48.832;9.072;2023-05-21T03:58:51;11.80;99.90
11748;DHT22;5931;48.832;9.072;2023-05-21T04:01:17;11.80;99.90
11748;DHT22;5931;48.832;9.072;2023-05-21T04:03:45;11.90;99.90
11748;DHT22;5931;48.832;9.072;2023-05-21T04:06:12;11.90;99.90
11748;DHT22;5931;48.832;9.072;2023-05-21T04:08:39;11.90;99.90
11748;DHT22;5931;48.832;9.072;2023-05-21T04:11:04;11.90;99.90
11748;DHT22;5931;48.832;9.072;2023-05-21T04:13:30;11.90;99.90
11748;DHT22;5931;48.832;9.072;2023-05-21T04:15:55;11.90;99.90
11748;DHT22;5931;48.832;9.072;2023-05-21T04:18:22;11.90;99.90
11748;DHT22;5931;48.832;9.072;2023-05-21T04:20:51;12.00;99.90
11748;DHT22;5931;48.832;9.072;2023-05-21T04:23:17;12.00;99.90
11748;DHT22;5931;48.832;9.072;2023-05-21T04:25:43;12.10;99.90
11748;DHT22;5931;48.832;9.072;2023-05-21T04:28:09;12.10;99.90
11748;DHT22;5931;48.832;9.072;2023-05-21T04:30:35;12.10;99.90
11748;DHT22;5931;48.832;9.072;2023-05-21T04:33:02;12.20;99.90
11748;DHT22;5931;48.832;9.072;2023-05-21T04:35:28;12.20;99.90
11748;DHT22;5931;48.832;9.072;2023-05-21T04:37:54;12.20;99.90
11748;DHT22;5931;48.832;9.072;2023-05-21T04:40:20;12.20;99.90
11748;DHT22;5931;48.832;9.072;2023-05-21T04:42:49;12.20;99.90
11748;DHT22;5931;48.832;9.072;2023-05-21T04:45:16;12.30;99.90
11748;DHT22;5931;48.832;9.072;2023-05-21T04:47:43;12.30;99.90
11748;DHT22;5931;48.832;9.072;2023-05-21T04:50:09;12.40;99.90
11748;DHT22;5931;48.832;9.072;2023-05-21T04:52:35;12.40;99.90
11748;DHT22;5931;48.832;9.072;2023-05-21T04:55:02;12.50;99.90
11748;DHT22;5931;48.832;9.072;2023-05-21T04:57:27;12.60;99.90
11748;DHT22;5931;48.832;9.072;2023-05-21T04:59:54;12.80;99.90
11748;DHT22;5931;48.832;9.072;2023-05-21T05:02:20;12.80;99.90
11748;DHT22;5931;48.832;9.072;2023-05-21T05:04:46;12.80;99.90
11748;DHT22;5931;48.832;9.072;2023-05-21T05:07:12;12.90;99.90
11748;DHT22;5931;48.832;9.072;2023-05-21T05:09:38;12.90;99.90
11748;DHT22;5931;48.832;9.072;2023-05-21T05:12:04;13.00;99.90
11748;DHT22;5931;48.832;9.072;2023-05-21T05:14:30;13.00;99.90
11748;DHT22;5931;48.832;9.072;2023-05-21T05:16:55;13.00;99.90
11748;DHT22;5931;48.832;9.072;2023-05-21T05:19:26;13.10;99.90
11748;DHT22;5931;48.832;9.072;2023-05-21T05:21:51;13.10;99.90
11748;DHT22;5931;48.832;9.072;2023-05-21T05:24:18;13.20;99.90
11748;DHT22;5931;48.832;9.072;2023-05-21T05:26:44;13.20;99.90
11748;DHT22;5931;48.832;9.072;2023-05-21T05:29:10;13.30;99.90
11748;DHT22;5931;48.832;9.072;2023-05-21T05:31:36;13.30;99.90
11748;DHT22;5931;48.832;9.072;2023-05-21T05:34:01;13.40;99.90
11748;DHT22;5931;48.832;9.072;2023-05-21T05:36:28;13.50;99.90
11748;DHT22;5931;48.832;9.072;2023-05-21T05:38:53;13.60;99.90
11748;DHT22;5931;48.832;9.072;2023-05-21T05:41:20;13.60;99.90
11748;DHT22;5931;48.832;9.072;2023-05-21T05:43:48;13.70;99.90
11748;DHT22;5931;48.832;9.072;2023-05-21T05:46:15;13.80;99.90
11748;DHT22;5931;48.832;9.072;2023-05-21T05:48:41;13.90;99.90
11748;DHT22;5931;48.832;9.072;2023-05-21T05:51:07;14.00;99.90
11748;DHT22;5931;48.832;9.072;2023-05-21T05:53:34;14.10;99.90
11748;DHT22;5931;48.832;9.072;2023-05-21T05:55:59;14.10;99.90
11748;DHT22;5931;48.832;9.072;2023-05-21T05:58:25;14.30;99.90
11748;DHT22;5931;48.832;9.072;2023-05-21T06:00:58;14.40;99.90
11748;DHT22;5931;48.832;9.072;2023-05-21T06:03:26;14.50;99.90
11748;DHT22;5931;48.832;9.072;2023-05-21T06:05:52;14.60;99.90
11748;DHT22;5931;48.832;9.072;2023-05-21T06:08:18;14.80;99.90
11748;DHT22;5931;48.832;9.072;2023-05-21T06:10:44;14.90;99.90
11748;DHT22;5931;48.832;9.072;2023-05-21T06:13:10;15.10;99.90
11748;DHT22;5931;48.832;9.072;2023-05-21T06:15:36;15.30;99.90
11748;DHT22;5931;48.832;9.072;2023-05-21T06:18:01;15.30;99.90
11748;DHT22;5931;48.832;9.072;2023-05-21T06:20:27;15.50;99.90
11748;DHT22;5931;48.832;9.072;2023-05-21T06:22:54;15.50;99.90
11748;DHT22;5931;48.832;9.072;2023-05-21T06:25:20;15.60;99.90
11748;DHT22;5931;48.832;9.072;2023-05-21T06:27:46;15.80;99.90
11748;DHT22;5931;48.832;9.072;2023-05-21T06:30:18;15.90;99.90
11748;DHT22;5931;48.832;9.072;2023-05-21T06:32:43;16.10;99.90
11748;DHT22;5931;48.832;9.072;2023-05-21T06:35:09;16.10;99.90
11748;DHT22;5931;48.832;9.072;2023-05-21T06:37:35;16.20;99.90
11748;DHT22;5931;48.832;9.072;2023-05-21T06:40:01;16.50;99.90
11748;DHT22;5931;48.832;9.072;2023-05-21T06:42:29;16.70;99.90
11748;DHT22;5931;48.832;9.072;2023-05-21T06:45:15;16.70;99.90
11748;DHT22;5931;48.832;9.072;2023-05-21T06:47:43;16.80;99.90
11748;DHT22;5931;48.832;9.072;2023-05-21T06:50:09;16.90;99.90
11748;DHT22;5931;48.832;9.072;2023-05-21T06:52:34;17.00;99.90
11748;DHT22;5931;48.832;9.072;2023-05-21T06:55:01;16.80;99.90
11748;DHT22;5931;48.832;9.072;2023-05-21T06:57:37;16.80;99.90
11748;DHT22;5931;48.832;9.072;2023-05-21T07:00:03;16.80;99.90
11748;DHT22;5931;48.832;9.072;2023-05-21T07:02:31;17.00;99.90
11748;DHT22;5931;48.832;9.072;2023-05-21T07:04:57;17.10;99.90
11748;DHT22;5931;48.832;9.072;2023-05-21T07:07:24;17.10;99.90
11748;DHT22;5931;48.832;9.072;2023-05-21T07:09:50;17.20;99.90
11748;DHT22;5931;48.832;9.072;2023-05-21T07:12:17;17.20;99.90
11748;DHT22;5931;48.832;9.072;2023-05-21T07:14:42;17.30;99.90
11748;DHT22;5931;48.832;9.072;2023-05-21T07:17:08;17.30;99.90
11748;DHT22;5931;48.832;9.072;2023-05-21T07:19:34;17.40;99.90
11748;DHT22;5931;48.832;9.072;2023-05-21T07:22:01;17.30;99.90
11748;DHT22;5931;48.832;9.072;2023-05-21T07:24:27;17.40;99.90
11748;DHT22;5931;48.832;9.072;2023-05-21T07:26:53;17.40;99.90
11748;DHT22;5931;48.832;9.072;2023-05-21T07:29:18;17.60;99.90
11748;DHT22;5931;48.832;9.072;2023-05-21T07:31:44;17.50;99.90
11748;DHT22;5931;48.832;9.072;2023-05-21T07:34:10;17.50;99.90
11748;DHT22;5931;48.832;9.072;2023-05-21T07:36:37;17.60;99.90
11748;DHT22;5931;48.832;9.072;2023-05-21T07:39:03;17.80;99.90
11748;DHT22;5931;48.832;9.072;2023-05-21T07:41:29;17.90;99.90
11748;DHT22;5931;48.832;9.072;2023-05-21T07:43:57;18.10;99.90
11748;DHT22;5931;48.832;9.072;2023-05-21T07:46:23;18.20;99.90
11748;DHT22;5931;48.832;9.072;2023-05-21T07:48:52;18.40;99.90
11748;DHT22;5931;48.832;9.072;2023-05-21T07:51:18;18.50;99.90
11748;DHT22;5931;48.832;9.072;2023-05-21T07:53:43;18.60;99.90
11748;DHT22;5931;48.832;9.072;2023-05-21T07:56:11;18.60;99.90
11748;DHT22;5931;48.832;9.072;2023-05-21T07:58:37;18.60;99.90
11748;DHT22;5931;48.832;9.072;2023-05-21T08:01:03;18.70;99.90
11748;DHT22;5931;48.832;9.072;2023-05-21T08:03:30;18.90;99.90
11748;DHT22;5931;48.832;9.072;2023-05-21T08:05:56;18.90;99.90
11748;DHT22;5931;48.832;9.072;2023-05-21T08:08:22;18.90;99.90
11748;DHT22;5931;48.832;9.072;2023-05-21T08:10:50;18.90;99.90
11748;DHT22;5931;48.832;9.072;2023-05-21T08:13:17;18.90;99.90
11748;DHT22;5931;48.832;9.072;2023-05-21T08:15:44;18.90;99.90
11748;DHT22;5931;48.832;9.072;2023-05-21T08:18:11;19.20;99.90
11748;DHT22;5931;48.832;9.072;2023-05-21T08:20:36;19.30;99.90
11748;DHT22;5931;48.832;9.072;2023-05-21T08:23:02;19.60;99.90
11748;DHT22;5931;48.832;9.072;2023-05-21T08:25:36;19.90;99.90
11748;DHT22;5931;48.832;9.072;2023-05-21T08:28:02;20.20;99.90
11748;DHT22;5931;48.832;9.072;2023-05-21T08:30:29;19.70;99.90
11748;DHT22;5931;48.832;9.072;2023-05-21T08:32:55;19.90;99.90
11748;DHT22;5931;48.832;9.072;2023-05-21T08:35:21;20.30;99.90
11748;DHT22;5931;48.832;9.072;2023-05-21T08:38:10;20.70;99.90
11748;DHT22;5931;48.832;9.072;2023-05-21T08:40:50;21.00;99.90
11748;DHT22;5931;48.832;9.072;2023-05-21T08:43:17;21.30;99.90
11748;DHT22;5931;48.832;9.072;2023-05-21T08:45:52;21.30;99.90
11748;DHT22;5931;48.832;9.072;2023-05-21T08:48:18;21.30;99.90
11748;DHT22;5931;48.832;9.072;2023-05-21T08:50:45;20.80;99.90
11748;DHT22;5931;48.832;9.072;2023-05-21T08:53:16;21.00;99.90
11748;DHT22;5931;48.832;9.072;2023-05-21T08:55:42;21.20;99.90
11748;DHT22;5931;48.832;9.072;2023-05-21T08:58:08;21.50;99.90
11748;DHT22;5931;48.832;9.072;2023-05-21T09:00:35;22.00;99.90
11748;DHT22;5931;48.832;9.072;2023-05-21T09:03:04;21.80;99.90
11748;DHT22;5931;48.832;9.072;2023-05-21T09:05:33;21.30;99.90
11748;DHT22;5931;48.832;9.072;2023-05-21T09:08:06;21.20;99.90
11748;DHT22;5931;48.832;9.072;2023-05-21T09:10:52;21.10;99.90
11748;DHT22;5931;48.832;9.072;2023-05-21T09:13:21;21.30;99.90
11748;DHT22;5931;48.832;9.072;2023-05-21T09:15:50;21.40;99.90
11748;DHT22;5931;48.832;9.072;2023-05-21T09:18:16;21.50;99.90
11748;DHT22;5931;48.832;9.072;2023-05-21T09:20:52;21.70;99.90
11748;DHT22;5931;48.832;9.072;2023-05-21T09:23:18;21.90;99.90
11748;DHT22;5931;48.832;9.072;2023-05-21T09:25:46;21.80;99.90
11748;DHT22;5931;48.832;9.072;2023-05-21T09:28:19;21.80;99.90
11748;DHT22;5931;48.832;9.072;2023-05-21T09:30:46;22.00;99.90
11748;DHT22;5931;48.832;9.072;2023-05-21T09:33:26;22.30;99.90
11748;DHT22;5931;48.832;9.072;2023-05-21T09:35:54;22.60;99.90
11748;DHT22;5931;48.832;9.072;2023-05-21T09:38:23;22.50;99.90
11748;DHT22;5931;48.832;9.072;2023-05-21T09:40:50;22.20;99.90
11748;DHT22;5931;48.832;9.072;2023-05-21T09:43:16;22.30;99.90
11748;DHT22;5931;48.832;9.072;2023-05-21T09:45:53;22.40;99.90
11748;DHT22;5931;48.832;9.072;2023-05-21T09:51:13;22.40;99.90
11748;DHT22;5931;48.832;9.072;2023-05-21T09:53:53;22.10;99.90
11748;DHT22;5931;48.832;9.072;2023-05-21T09:56:24;21.90;99.90
11748;DHT22;5931;48.832;9.072;2023-05-21T09:58:54;22.40;99.90
11748;DHT22;5931;48.832;9.072;2023-05-21T10:01:22;22.40;99.90
11748;DHT22;5931;48.832;9.072;2023-05-21T10:03:52;22.50;99.90
11748;DHT22;5931;48.832;9.072;2023-05-21T10:06:19;22.30;99.90
11748;DHT22;5931;48.832;9.072;2023-05-21T10:08:47;22.60;99.90
11748;DHT22;5931;48.832;9.072;2023-05-21T10:11:18;22.90;99.90
11748;DHT22;5931;48.832;9.072;2023-05-21T10:13:48;23.10;99.90
11748;DHT22;5931;48.832;9.072;2023-05-21T10:16:15;23.50;99.90
11748;DHT22;5931;48.832;9.072;2023-05-21T10:18:43;23.80;99.90
11748;DHT22;5931;48.832;9.072;2023-05-21T10:21:10;24.10;99.90
11748;DHT22;5931;48.832;9.072;2023-05-21T10:23:37;24.50;99.90
11748;DHT22;5931;48.832;9.072;2023-05-21T10:26:04;24.60;99.90
11748;DHT22;5931;48.832;9.072;2023-05-21T10:28:32;24.60;99.90
11748;DHT22;5931;48.832;9.072;2023-05-21T10:30:58;24.40;99.90
11748;DHT22;5931;48.832;9.072;2023-05-21T10:33:24;24.20;99.90
11748;DHT22;5931;48.832;9.072;2023-05-21T10:35:52;24.30;99.90
11748;DHT22;5931;48.832;9.072;2023-05-21T10:38:19;24.10;99.90
11748;DHT22;5931;48.832;9.072;2023-05-21T10:40:46;23.60;99.90
11748;DHT22;5931;48.832;9.072;2023-05-21T10:43:50;23.60;99.90
11748;DHT22;5931;48.832;9.072;2023-05-21T10:52:05;23.40;99.90
11748;DHT22;5931;48.832;9.072;2023-05-21T10:54:59;23.30;99.90
11748;DHT22;5931;48.832;9.072;2023-05-21T11:00:17;23.00;99.90
11748;DHT22;5931;48.832;9.072;2023-05-21T11:02:45;23.20;99.90
11748;DHT22;5931;48.832;9.072;2023-05-21T11:05:13;23.10;99.90
11748;DHT22;5931;48.832;9.072;2023-05-21T11:13:13;23.10;99.90
11748;DHT22;5931;48.832;9.072;2023-05-21T11:21:11;23.40;99.90
11748;DHT22;5931;48.832;9.072;2023-05-21T11:23:53;23.40;99.90
11748;DHT22;5931;48.832;9.072;2023-05-21T11:26:24;23.80;99.90
11748;DHT22;5931;48.832;9.072;2023-05-21T11:29:09;24.10;99.90
11748;DHT22;5931;48.832;9.072;2023-05-21T11:31:35;24.70;99.90
11748;DHT22;5931;48.832;9.072;2023-05-21T11:36:46;25.40;99.90
11748;DHT22;5931;48.832;9.072;2023-05-21T11:39:16;25.70;99.90
11748;DHT22;5931;48.832;9.072;2023-05-21T11:42:01;25.30;99.90
11748;DHT22;5931;48.832;9.072;2023-05-21T11:47:04;25.60;99.90
11748;DHT22;5931;48.832;9.072;2023-05-21T11:49:30;25.30;99.90
11748;DHT22;5931;48.832;9.072;2023-05-21T11:51:59;25.30;99.90
11748;DHT22;5931;48.832;9.072;2023-05-21T11:54:29;25.50;99.90
11748;DHT22;5931;48.832;9.072;2023-05-21T11:57:00;25.50;99.90
11748;DHT22;5931;48.832;9.072;2023-05-21T11:59:26;25.80;99.90
11748;DHT22;5931;48.832;9.072;2023-05-21T12:01:53;26.10;99.90
11748;DHT22;5931;48.832;9.072;2023-05-21T12:04:19;26.30;99.90
11748;DHT22;5931;48.832;9.072;2023-05-21T12:06:45;26.10;99.90
11748;DHT22;5931;48.832;9.072;2023-05-21T12:09:12;26.20;99.90
11748;DHT22;5931;48.832;9.072;2023-05-21T12:11:39;26.30;99.90
11748;DHT22;5931;48.832;9.072;2023-05-21T12:14:09;26.60;99.90
11748;DHT22;5931;48.832;9.072;2023-05-21T12:16:36;26.40;99.90
11748;DHT22;5931;48.832;9.072;2023-05-21T12:19:02;26.50;99.90
11748;DHT22;5931;48.832;9.072;2023-05-21T12:21:28;26.60;99.90
11748;DHT22;5931;48.832;9.072;2023-05-21T12:23:55;26.80;99.90
11748;DHT22;5931;48.832;9.072;2023-05-21T12:26:22;26.80;99.90
11748;DHT22;5931;48.832;9.072;2023-05-21T12:28:54;26.80;99.90
11748;DHT22;5931;48.832;9.072;2023-05-21T12:31:20;26.50;99.90
11748;DHT22;5931;48.832;9.072;2023-05-21T12:33:50;26.60;99.90
11748;DHT22;5931;48.832;9.072;2023-05-21T12:36:25;26.60;99.90
11748;DHT22;5931;48.832;9.072;2023-05-21T12:38:51;26.60;99.90
11748;DHT22;5931;48.832;9.072;2023-05-21T12:41:17;26.80;99.90
11748;DHT22;5931;48.832;9.072;2023-05-21T12:43:43;26.80;99.90
11748;DHT22;5931;48.832;9.072;2023-05-21T12:46:10;26.50;99.90
11748;DHT22;5931;48.832;9.072;2023-05-21T12:48:40;26.10;99.90
11748;DHT22;5931;48.832;9.072;2023-05-21T12:51:07;25.80;99.90
11748;DHT22;5931;48.832;9.072;2023-05-21T12:53:36;25.90;99.90
11748;DHT22;5931;48.832;9.072;2023-05-21T12:56:14;25.60;99.90
11748;DHT22;5931;48.832;9.072;2023-05-21T12:58:41;26.10;99.90
11748;DHT22;5931;48.832;9.072;2023-05-21T13:01:07;26.60;99.90
11748;DHT22;5931;48.832;9.072;2023-05-21T13:03:37;26.60;99.90
11748;DHT22;5931;48.832;9.072;2023-05-21T13:06:07;26.60;99.90
11748;DHT22;5931;48.832;9.072;2023-05-21T13:08:33;26.40;99.90
11748;DHT22;5931;48.832;9.072;2023-05-21T13:11:01;26.50;99.90
11748;DHT22;5931;48.832;9.072;2023-05-21T13:13:28;26.60;99.90
11748;DHT22;5931;48.832;9.072;2023-05-21T13:15:53;26.80;99.90
11748;DHT22;5931;48.832;9.072;2023-05-21T13:18:20;27.00;99.90
11748;DHT22;5931;48.832;9.072;2023-05-21T13:20:46;27.30;99.90
11748;DHT22;5931;48.832;9.072;2023-05-21T13:23:13;27.50;99.90
11748;DHT22;5931;48.832;9.072;2023-05-21T13:25:40;27.10;99.90
11748;DHT22;5931;48.832;9.072;2023-05-21T13:28:05;26.50;99.90
11748;DHT22;5931;48.832;9.072;2023-05-21T13:30:34;26.40;99.90
11748;DHT22;5931;48.832;9.072;2023-05-21T13:33:01;26.60;99.90
11748;DHT22;5931;48.832;9.072;2023-05-21T13:35:27;26.70;99.90
11748;DHT22;5931;48.832;9.072;2023-05-21T13:37:52;26.60;99.90
11748;DHT22;5931;48.832;9.072;2023-05-21T13:40:18;26.60;99.90
11748;DHT22;5931;48.832;9.072;2023-05-21T13:42:46;26.80;99.90
11748;DHT22;5931;48.832;9.072;2023-05-21T13:45:13;27.00;99.90
11748;DHT22;5931;48.832;9.072;2023-05-21T13:47:40;27.10;99.90
11748;DHT22;5931;48.832;9.072;2023-05-21T13:50:07;27.20;99.90
11748;DHT22;5931;48.832;9.072;2023-05-21T13:52:32;27.40;99.90
11748;DHT22;5931;48.832;9.072;2023-05-21T13:54:58;27.50;99.90
11748;DHT22;5931;48.832;9.072;2023-05-21T13:57:24;27.50;99.90
11748;DHT22;5931;48.832;9.072;2023-05-21T13:59:51;27.40;99.90
11748;DHT22;5931;48.832;9.072;2023-05-21T14:02:17;27.30;99.90
11748;DHT22;5931;48.832;9.072;2023-05-21T14:04:43;27.70;99.90
11748;DHT22;5931;48.832;9.072;2023-05-21T14:07:09;27.70;99.90
11748;DHT22;5931;48.832;9.072;2023-05-21T14:09:36;28.00;99.90
11748;DHT22;5931;48.832;9.072;2023-05-21T14:12:02;28.30;99.90
11748;DHT22;5931;48.832;9.072;2023-05-21T14:14:29;28.40;99.90
11748;DHT22;5931;48.832;9.072;2023-05-21T14:16:55;28.50;99.90
11748;DHT22;5931;48.832;9.072;2023-05-21T14:19:21;28.90;99.90
11748;DHT22;5931;48.832;9.072;2023-05-21T14:21:47;28.90;99.90
11748;DHT22;5931;48.832;9.072;2023-05-21T14:24:13;29.10;99.90
11748;DHT22;5931;48.832;9.072;2023-05-21T14:26:41;29.20;99.60
11748;DHT22;5931;48.832;9.072;2023-05-21T14:29:07;29.30;99.90
11748;DHT22;5931;48.832;9.072;2023-05-21T14:31:34;29.40;99.30
11748;DHT22;5931;48.832;9.072;2023-05-21T14:34:00;29.40;98.70
11748;DHT22;5931;48.832;9.072;2023-05-21T14:36:27;29.20;99.00
11748;DHT22;5931;48.832;9.072;2023-05-21T14:38:53;29.30;98.30
11748;DHT22;5931;48.832;9.072;2023-05-21T14:41:18;29.40;98.60
11748;DHT22;5931;48.832;9.072;2023-05-21T14:43:46;29.60;98.00
11748;DHT22;5931;48.832;9.072;2023-05-21T14:46:11;29.60;99.80
11748;DHT22;5931;48.832;9.072;2023-05-21T14:48:37;29.60;98.00
11748;DHT22;5931;48.832;9.072;2023-05-21T14:51:03;29.30;98.30
11748;DHT22;5931;48.832;9.072;2023-05-21T14:53:28;29.10;97.00
11748;DHT22;5931;48.832;9.072;2023-05-21T14:55:54;28.80;98.90
11748;DHT22;5931;48.832;9.072;2023-05-21T14:58:19;28.30;99.90
11748;DHT22;5931;48.832;9.072;2023-05-21T15:00:45;27.40;99.90
11748;DHT22;5931;48.832;9.072;2023-05-21T15:03:11;27.50;99.90
11748;DHT22;5931;48.832;9.072;2023-05-21T15:05:37;27.40;99.90
11748;DHT22;5931;48.832;9.072;2023-05-21T15:08:03;27.10;99.90
11748;DHT22;5931;48.832;9.072;2023-05-21T15:10:30;27.40;99.90
11748;DHT22;5931;48.832;9.072;2023-05-21T15:12:56;26.90;99.90
11748;DHT22;5931;48.832;9.072;2023-05-21T15:15:21;26.90;99.90
11748;DHT22;5931;48.832;9.072;2023-05-21T15:17:48;26.70;99.90
11748;DHT22;5931;48.832;9.072;2023-05-21T15:20:14;27.00;99.90
11748;DHT22;5931;48.832;9.072;2023-05-21T15:22:40;27.20;99.90
11748;DHT22;5931;48.832;9.072;2023-05-21T15:25:06;27.20;99.90
11748;DHT22;5931;48.832;9.072;2023-05-21T15:27:33;27.40;99.90
11748;DHT22;5931;48.832;9.072;2023-05-21T15:29:58;27.50;94.40
11748;DHT22;5931;48.832;9.072;2023-05-21T15:32:24;27.40;93.00
11748;DHT22;5931;48.832;9.072;2023-05-21T15:34:50;27.40;92.70
11748;DHT22;5931;48.832;9.072;2023-05-21T15:37:16;27.40;92.70
11748;DHT22;5931;48.832;9.072;2023-05-21T15:39:43;27.30;91.60
11748;DHT22;5931;48.832;9.072;2023-05-21T15:42:09;27.10;93.20
11748;DHT22;5931;48.832;9.072;2023-05-21T15:44:36;26.90;92.40
11748;DHT22;5931;48.832;9.072;2023-05-21T15:47:02;26.90;93.30
11748;DHT22;5931;48.832;9.072;2023-05-21T15:49:28;27.10;93.30
11748;DHT22;5931;48.832;9.072;2023-05-21T15:51:53;27.30;92.90
11748;DHT22;5931;48.832;9.072;2023-05-21T15:54:21;27.30;91.90
11748;DHT22;5931;48.832;9.072;2023-05-21T15:56:49;27.20;92.20
11748;DHT22;5931;48.832;9.072;2023-05-21T15:59:15;27.20;93.10
11748;DHT22;5931;48.832;9.072;2023-05-21T16:01:40;27.60;92.80
11748;DHT22;5931;48.832;9.072;2023-05-21T16:04:06;27.80;92.80
11748;DHT22;5931;48.832;9.072;2023-05-21T16:06:32;28.00;93.50
11748;DHT22;5931;48.832;9.072;2023-05-21T16:08:58;28.10;93.80
11748;DHT22;5931;48.832;9.072;2023-05-21T16:11:24;27.90;93.90
11748;DHT22;5931;48.832;9.072;2023-05-21T16:13:54;27.90;94.40
11748;DHT22;5931;48.832;9.072;2023-05-21T16:16:20;27.70;95.10
11748;DHT22;5931;48.832;9.072;2023-05-21T16:18:46;27.50;95.60